sensor_id;sensor_type;location;lat;lon;timestamp;pressure;altitude;pressure_sealevel;temperature;humidity
62976;BME280;49071;0.000;0.000;2022-07-29T04:50:25;101234.56;;;21.22;41.07
62976;BME280;49071;0.000;0.000;2022-07-29T04:53:25;101235.31;;;21.41;40.94
62976;BME280;49071;0.000;0.000;2022-07-29T04:56:26;101233.84;;;21.55;40.77
62976;BME280;49071;0.000;0.000;2022-07-29T04:59:26;101240.84;;;21.59;40.51
62976;BME280;49071;0.000;0.000;2022-07-29T05:02:27;101227.41;;;21.63;40.74
62976;BME280;49071;0.000;0.000;2022-07-29T05:05:27;101232.84;;;21.67;40.60
62976;BME280;49071;0.000;0.000;2022-07-29T05:08:27;101229.13;;;21.70;40.69
62976;BME280;49071;0.000;0.000;2022-07-29T05:11:28;101217.69;;;21.73;40.65
62976;BME280;49071;0.000;0.000;2022-07-29T05:14:28;101210.63;;;21.78;40.50
62976;BME280;49071;0.000;0.000;2022-07-29T05:17:28;101210.94;;;21.80;40.39
62976;BME280;49071;0.000;0.000;2022-07-29T05:20:29;101219.69;;;21.82;40.67
62976;BME280;49071;0.000;0.000;2022-07-29T05:23:29;101219.19;;;21.84;40.84
62976;BME280;49071;0.000;0.000;2022-07-29T05:26:29;101225.13;;;21.86;40.88
62976;BME280;49071;0.000;0.000;2022-07-29T05:29:30;101222.31;;;21.86;40.97
62976;BME280;49071;0.000;0.000;2022-07-29T05:32:30;101225.88;;;21.86;40.94
62976;BME280;49071;0.000;0.000;2022-07-29T05:35:30;101224.16;;;21.89;40.85
62976;BME280;49071;0.000;0.000;2022-07-29T05:38:30;101226.97;;;21.89;40.68
62976;BME280;49071;0.000;0.000;2022-07-29T05:41:31;101229.78;;;21.89;40.80
62976;BME280;49071;0.000;0.000;2022-07-29T05:44:35;101228.53;;;21.90;40.72
62976;BME280;49071;0.000;0.000;2022-07-29T05:47:35;101225.72;;;21.90;40.67
62976;BME280;49071;0.000;0.000;2022-07-29T05:50:36;101226.97;;;21.89;40.69
62976;BME280;49071;0.000;0.000;2022-07-29T05:53:36;101222.81;;;21.84;40.89
62976;BME280;49071;0.000;0.000;2022-07-29T05:56:37;101219.50;;;21.86;41.03
62976;BME280;49071;0.000;0.000;2022-07-29T05:59:37;101219.78;;;21.88;40.83
62976;BME280;49071;0.000;0.000;2022-07-29T06:02:37;101227.94;;;21.86;40.97
62976;BME280;49071;0.000;0.000;2022-07-29T06:05:37;101229.00;;;21.88;40.90
62976;BME280;49071;0.000;0.000;2022-07-29T06:08:38;101222.91;;;21.90;41.12
62976;BME280;49071;0.000;0.000;2022-07-29T06:11:38;101234.47;;;21.92;40.94
62976;BME280;49071;0.000;0.000;2022-07-29T06:14:38;101222.41;;;21.91;41.01
62976;BME280;49071;0.000;0.000;2022-07-29T06:17:39;101221.94;;;21.93;41.16
62976;BME280;49071;0.000;0.000;2022-07-29T06:20:39;101224.75;;;21.93;40.98
62976;BME280;49071;0.000;0.000;2022-07-29T06:23:39;101227.56;;;21.93;41.05
62976;BME280;49071;0.000;0.000;2022-07-29T06:26:40;101228.34;;;21.93;41.03
62976;BME280;49071;0.000;0.000;2022-07-29T06:29:40;101232.75;;;21.94;41.22
62976;BME280;49071;0.000;0.000;2022-07-29T06:32:40;101237.59;;;21.94;41.25
62976;BME280;49071;0.000;0.000;2022-07-29T06:35:40;101240.69;;;21.96;41.18
62976;BME280;49071;0.000;0.000;2022-07-29T06:38:42;101239.44;;;21.97;41.00
62976;BME280;49071;0.000;0.000;2022-07-29T06:41:42;101240.69;;;21.96;40.98
62976;BME280;49071;0.000;0.000;2022-07-29T06:44:46;101247.88;;;21.97;41.26
62976;BME280;49071;0.000;0.000;2022-07-29T06:47:46;101249.44;;;21.98;41.21
62976;BME280;49071;0.000;0.000;2022-07-29T06:50:46;101248.97;;;22.00;41.16
62976;BME280;49071;0.000;0.000;2022-07-29T06:53:46;101247.38;;;21.99;41.34
62976;BME280;49071;0.000;0.000;2022-07-29T06:56:47;101247.38;;;21.99;41.38
62976;BME280;49071;0.000;0.000;2022-07-29T06:59:47;101240.53;;;22.00;41.50
62976;BME280;49071;0.000;0.000;2022-07-29T07:02:47;101239.44;;;21.97;41.45
62976;BME280;49071;0.000;0.000;2022-07-29T07:05:48;101231.31;;;21.99;41.42
62976;BME280;49071;0.000;0.000;2022-07-29T07:08:48;101234.91;;;22.00;41.24
62976;BME280;49071;0.000;0.000;2022-07-29T07:11:48;101227.22;;;22.00;41.56
62976;BME280;49071;0.000;0.000;2022-07-29T07:14:49;101227.22;;;22.00;41.33
62976;BME280;49071;0.000;0.000;2022-07-29T07:17:49;101228.50;;;21.99;41.58
62976;BME280;49071;0.000;0.000;2022-07-29T07:20:49;101235.97;;;22.02;41.40
62976;BME280;49071;0.000;0.000;2022-07-29T07:23:49;101244.88;;;22.01;41.38
62976;BME280;49071;0.000;0.000;2022-07-29T07:26:50;101236.75;;;22.03;41.47
62976;BME280;49071;0.000;0.000;2022-07-29T07:29:51;101238.78;;;22.02;41.75
62976;BME280;49071;0.000;0.000;2022-07-29T07:32:51;101230.66;;;22.04;42.06
62976;BME280;49071;0.000;0.000;2022-07-29T07:35:51;101236.75;;;21.69;42.97
62976;BME280;49071;0.000;0.000;2022-07-29T07:38:51;101239.31;;;21.58;43.53
62976;BME280;49071;0.000;0.000;2022-07-29T07:41:52;101245.59;;;21.44;44.19
62976;BME280;49071;0.000;0.000;2022-07-29T07:44:52;101242.28;;;21.55;43.87
62976;BME280;49071;0.000;0.000;2022-07-29T07:47:52;101240.09;;;21.49;44.20
62976;BME280;49071;0.000;0.000;2022-07-29T07:50:52;101231.78;;;21.64;43.83
62976;BME280;49071;0.000;0.000;2022-07-29T07:53:53;101229.84;;;21.80;43.37
62976;BME280;49071;0.000;0.000;2022-07-29T07:56:53;101232.66;;;21.80;43.65
62976;BME280;49071;0.000;0.000;2022-07-29T07:59:53;101229.19;;;21.85;43.27
62976;BME280;49071;0.000;0.000;2022-07-29T08:02:53;101237.94;;;21.87;43.50
62976;BME280;49071;0.000;0.000;2022-07-29T08:05:54;101228.84;;;21.92;43.18
62976;BME280;49071;0.000;0.000;2022-07-29T08:08:54;101229.16;;;21.94;42.95
62976;BME280;49071;0.000;0.000;2022-07-29T08:11:54;101224.03;;;21.83;43.74
62976;BME280;49071;0.000;0.000;2022-07-29T08:14:55;101221.66;;;21.91;43.56
62976;BME280;49071;0.000;0.000;2022-07-29T08:17:55;101230.03;;;22.00;43.28
62976;BME280;49071;0.000;0.000;2022-07-29T08:20:56;101228.50;;;21.99;43.58
62976;BME280;49071;0.000;0.000;2022-07-29T08:23:56;101224.72;;;22.02;43.69
62976;BME280;49071;0.000;0.000;2022-07-29T08:27:16;101224.06;;;22.07;43.32
62976;BME280;49071;0.000;0.000;2022-07-29T08:30:17;101228.41;;;22.08;43.31
62976;BME280;49071;0.000;0.000;2022-07-29T08:33:18;101227.94;;;22.10;43.24
62976;BME280;49071;0.000;0.000;2022-07-29T08:36:18;101225.59;;;22.08;43.45
62976;BME280;49071;0.000;0.000;2022-07-29T08:39:20;101227.94;;;22.10;43.03
62976;BME280;49071;0.000;0.000;2022-07-29T08:42:21;101230.28;;;22.11;43.06
62976;BME280;49071;0.000;0.000;2022-07-29T08:45:21;101226.72;;;22.11;43.10
62976;BME280;49071;0.000;0.000;2022-07-29T08:48:23;101225.91;;;22.10;43.34
62976;BME280;49071;0.000;0.000;2022-07-29T08:51:24;101228.72;;;22.10;43.25
62976;BME280;49071;0.000;0.000;2022-07-29T08:54:25;101233.41;;;22.13;43.11
62976;BME280;49071;0.000;0.000;2022-07-29T08:57:25;101223.72;;;22.14;43.16
62976;BME280;49071;0.000;0.000;2022-07-29T09:00:26;101236.50;;;22.15;42.91
62976;BME280;49071;0.000;0.000;2022-07-29T09:03:29;101232.16;;;22.14;43.21
62976;BME280;49071;0.000;0.000;2022-07-29T09:06:31;101225.84;;;22.20;43.22
62976;BME280;49071;0.000;0.000;2022-07-29T09:09:33;101227.72;;;22.23;42.83
62976;BME280;49071;0.000;0.000;2022-07-29T09:12:33;101229.78;;;22.22;42.77
62976;BME280;49071;0.000;0.000;2022-07-29T09:15:33;101220.09;;;22.23;42.93
62976;BME280;49071;0.000;0.000;2022-07-29T09:18:38;101219.28;;;22.23;42.91
62976;BME280;49071;0.000;0.000;2022-07-29T09:21:40;101208.34;;;22.25;42.72
62976;BME280;49071;0.000;0.000;2022-07-29T09:24:58;101216.78;;;22.25;42.92
62976;BME280;49071;0.000;0.000;2022-07-29T09:28:05;101205.06;;;22.26;42.84
62976;BME280;49071;0.000;0.000;2022-07-29T09:31:05;101211.47;;;22.27;42.84
62976;BME280;49071;0.000;0.000;2022-07-29T09:34:07;101211.47;;;22.27;42.06
62976;BME280;49071;0.000;0.000;2022-07-29T09:37:07;101202.34;;;22.32;42.44
62976;BME280;49071;0.000;0.000;2022-07-29T09:40:12;101202.34;;;22.32;42.50
62976;BME280;49071;0.000;0.000;2022-07-29T09:43:14;101195.47;;;22.33;42.38
62976;BME280;49071;0.000;0.000;2022-07-29T09:46:14;101196.72;;;22.32;42.43
62976;BME280;49071;0.000;0.000;2022-07-29T09:49:14;101181.88;;;22.31;42.49
62976;BME280;49071;0.000;0.000;2022-07-29T09:52:15;101179.84;;;22.32;42.52
62976;BME280;49071;0.000;0.000;2022-07-29T09:55:16;101178.59;;;22.33;42.43
62976;BME280;49071;0.000;0.000;2022-07-29T09:58:17;101178.59;;;22.33;42.39
62976;BME280;49071;0.000;0.000;2022-07-29T10:01:27;101180.13;;;22.34;42.55
62976;BME280;49071;0.000;0.000;2022-07-29T10:04:39;101174.50;;;22.34;42.18
62976;BME280;49071;0.000;0.000;2022-07-29T10:07:43;101168.41;;;22.35;42.25
62976;BME280;49071;0.000;0.000;2022-07-29T10:10:44;101164.31;;;22.36;42.21
62976;BME280;49071;0.000;0.000;2022-07-29T10:13:46;101160.75;;;22.36;42.17
62976;BME280;49071;0.000;0.000;2022-07-29T10:16:46;101160.75;;;22.36;42.31
62976;BME280;49071;0.000;0.000;2022-07-29T10:19:47;101152.28;;;22.36;42.50
62976;BME280;49071;0.000;0.000;2022-07-29T10:22:49;101158.69;;;22.36;42.43
62976;BME280;49071;0.000;0.000;2022-07-29T10:25:49;101159.75;;;22.39;42.45
62976;BME280;49071;0.000;0.000;2022-07-29T10:28:50;101156.94;;;22.39;42.33
62976;BME280;49071;0.000;0.000;2022-07-29T10:41:43;101167.25;;;22.42;42.35
62976;BME280;49071;0.000;0.000;2022-07-29T10:44:46;101163.19;;;22.43;42.31
62976;BME280;49071;0.000;0.000;2022-07-29T10:47:47;101156.78;;;22.43;42.28
62976;BME280;49071;0.000;0.000;2022-07-29T10:50:57;101159.59;;;22.43;42.21
62976;BME280;49071;0.000;0.000;2022-07-29T10:54:01;101156.78;;;22.43;42.20
62976;BME280;49071;0.000;0.000;2022-07-29T10:57:12;101156.28;;;22.44;42.55
62976;BME280;49071;0.000;0.000;2022-07-29T11:13:10;101132.53;;;22.45;42.43
62976;BME280;49071;0.000;0.000;2022-07-29T11:16:11;101132.53;;;22.45;42.45
62976;BME280;49071;0.000;0.000;2022-07-29T11:22:12;101137.66;;;22.47;42.50
62976;BME280;49071;0.000;0.000;2022-07-29T11:25:30;101131.53;;;22.48;42.60
62976;BME280;49071;0.000;0.000;2022-07-29T11:28:31;101129.50;;;22.49;42.43
62976;BME280;49071;0.000;0.000;2022-07-29T11:34:32;101134.34;;;22.48;42.68
62976;BME280;49071;0.000;0.000;2022-07-29T11:37:33;101133.88;;;22.50;42.41
62976;BME280;49071;0.000;0.000;2022-07-29T11:40:33;101132.63;;;22.51;42.54
62976;BME280;49071;0.000;0.000;2022-07-29T11:43:49;101121.34;;;22.51;42.90
62976;BME280;49071;0.000;0.000;2022-07-29T11:46:51;101126.97;;;22.51;42.73
62976;BME280;49071;0.000;0.000;2022-07-29T11:49:51;101129.78;;;22.51;42.83
62976;BME280;49071;0.000;0.000;2022-07-29T11:52:52;101132.63;;;22.51;42.84
62976;BME280;49071;0.000;0.000;2022-07-29T11:55:54;101122.63;;;22.50;42.88
62976;BME280;49071;0.000;0.000;2022-07-29T11:59:03;101122.13;;;22.51;42.99
62976;BME280;49071;0.000;0.000;2022-07-29T12:02:04;101122.63;;;22.50;43.00
62976;BME280;49071;0.000;0.000;2022-07-29T12:05:04;101123.41;;;22.50;43.07
62976;BME280;49071;0.000;0.000;2022-07-29T12:08:15;101123.69;;;22.52;43.10
62976;BME280;49071;0.000;0.000;2022-07-29T12:11:18;101110.38;;;22.53;42.97
62976;BME280;49071;0.000;0.000;2022-07-29T12:14:29;101111.94;;;22.54;43.20
62976;BME280;49071;0.000;0.000;2022-07-29T12:17:33;101108.94;;;22.57;43.40
62976;BME280;49071;0.000;0.000;2022-07-29T12:20:34;101110.47;;;22.58;43.38
62976;BME280;49071;0.000;0.000;2022-07-29T12:23:34;101104.84;;;22.58;43.41
62976;BME280;49071;0.000;0.000;2022-07-29T12:26:35;101103.59;;;22.60;43.36
62976;BME280;49071;0.000;0.000;2022-07-29T12:29:35;101100.00;;;22.59;43.22
62976;BME280;49071;0.000;0.000;2022-07-29T12:32:37;101100.78;;;22.60;43.32
62976;BME280;49071;0.000;0.000;2022-07-29T12:35:37;101097.97;;;22.60;42.98
62976;BME280;49071;0.000;0.000;2022-07-29T12:38:39;101095.94;;;22.60;43.23
62976;BME280;49071;0.000;0.000;2022-07-29T12:41:40;101092.63;;;22.62;43.07
62976;BME280;49071;0.000;0.000;2022-07-29T12:44:44;101091.06;;;22.61;43.29
62976;BME280;49071;0.000;0.000;2022-07-29T12:47:51;101097.47;;;22.61;43.42
62976;BME280;49071;0.000;0.000;2022-07-29T12:50:56;101089.03;;;22.61;43.25
62976;BME280;49071;0.000;0.000;2022-07-29T12:54:09;101093.41;;;22.62;43.24
62976;BME280;49071;0.000;0.000;2022-07-29T12:57:10;101084.19;;;22.62;43.48
62976;BME280;49071;0.000;0.000;2022-07-29T13:00:11;101082.91;;;22.63;43.58
62976;BME280;49071;0.000;0.000;2022-07-29T13:03:12;101082.91;;;22.63;43.50
62976;BME280;49071;0.000;0.000;2022-07-29T13:09:44;101084.00;;;22.65;43.66
62976;BME280;49071;0.000;0.000;2022-07-29T13:16:05;101079.13;;;22.66;43.53
62976;BME280;49071;0.000;0.000;2022-07-29T13:19:10;101070.69;;;22.66;43.69
62976;BME280;49071;0.000;0.000;2022-07-29T13:22:11;101070.69;;;22.66;43.58
62976;BME280;49071;0.000;0.000;2022-07-29T13:25:13;101071.44;;;22.66;43.93
62976;BME280;49071;0.000;0.000;2022-07-29T13:28:13;101075.06;;;22.67;43.92
62976;BME280;49071;0.000;0.000;2022-07-29T13:31:13;101062.53;;;22.68;44.05
62976;BME280;49071;0.000;0.000;2022-07-29T13:34:14;101068.16;;;22.68;44.08
62976;BME280;49071;0.000;0.000;2022-07-29T13:37:14;101061.25;;;22.69;43.85
62976;BME280;49071;0.000;0.000;2022-07-29T13:40:14;101071.28;;;22.70;43.86
62976;BME280;49071;0.000;0.000;2022-07-29T13:43:15;101062.06;;;22.69;43.84
62976;BME280;49071;0.000;0.000;2022-07-29T13:46:15;101061.53;;;22.71;43.65
62976;BME280;49071;0.000;0.000;2022-07-29T13:49:15;101057.47;;;22.72;43.64
62976;BME280;49071;0.000;0.000;2022-07-29T13:52:16;101052.16;;;22.74;43.86
62976;BME280;49071;0.000;0.000;2022-07-29T13:55:16;101045.25;;;22.75;43.87
62976;BME280;49071;0.000;0.000;2022-07-29T13:58:17;101043.97;;;22.76;43.83
62976;BME280;49071;0.000;0.000;2022-07-29T14:01:17;101053.50;;;22.78;44.23
62976;BME280;49071;0.000;0.000;2022-07-29T14:04:17;101036.59;;;22.78;44.22
62976;BME280;49071;0.000;0.000;2022-07-29T14:07:18;101041.44;;;22.78;44.23
62976;BME280;49071;0.000;0.000;2022-07-29T14:10:18;101036.59;;;22.78;44.01
62976;BME280;49071;0.000;0.000;2022-07-29T14:13:19;101036.88;;;22.80;44.00
62976;BME280;49071;0.000;0.000;2022-07-29T14:16:19;101024.84;;;22.80;44.05
62976;BME280;49071;0.000;0.000;2022-07-29T14:19:19;101022.78;;;22.80;44.21
62976;BME280;49071;0.000;0.000;2022-07-29T14:22:19;101027.94;;;22.82;43.90
62976;BME280;49071;0.000;0.000;2022-07-29T14:25:20;101023.84;;;22.83;44.20
62976;BME280;49071;0.000;0.000;2022-07-29T14:28:20;101023.09;;;22.83;44.21
62976;BME280;49071;0.000;0.000;2022-07-29T14:31:20;101025.41;;;22.84;43.87
62976;BME280;49071;0.000;0.000;2022-07-29T14:34:20;101021.31;;;22.85;43.84
62976;BME280;49071;0.000;0.000;2022-07-29T14:37:21;101021.31;;;22.85;44.21
62976;BME280;49071;0.000;0.000;2022-07-29T14:40:21;101015.69;;;22.85;44.25
62976;BME280;49071;0.000;0.000;2022-07-29T14:43:22;101016.00;;;22.87;44.17
62976;BME280;49071;0.000;0.000;2022-07-29T14:46:22;101008.31;;;22.88;44.05
62976;BME280;49071;0.000;0.000;2022-07-29T14:49:23;101003.47;;;22.88;44.11
62976;BME280;49071;0.000;0.000;2022-07-29T14:52:23;101007.53;;;22.87;43.96
62976;BME280;49071;0.000;0.000;2022-07-29T14:55:23;101005.00;;;22.89;44.25
62976;BME280;49071;0.000;0.000;2022-07-29T14:58:23;101002.97;;;22.90;44.22
62976;BME280;49071;0.000;0.000;2022-07-29T15:01:24;101006.56;;;22.90;44.01
62976;BME280;49071;0.000;0.000;2022-07-29T15:04:24;101002.47;;;22.91;44.23
62976;BME280;49071;0.000;0.000;2022-07-29T15:07:25;101010.94;;;22.91;44.07
62976;BME280;49071;0.000;0.000;2022-07-29T15:10:25;101012.97;;;22.91;44.13
62976;BME280;49071;0.000;0.000;2022-07-29T15:13:27;101010.16;;;22.91;43.77
62976;BME280;49071;0.000;0.000;2022-07-29T15:16:27;101008.59;;;22.90;43.74
62976;BME280;49071;0.000;0.000;2022-07-29T15:19:27;101005.78;;;22.90;44.08
62976;BME280;49071;0.000;0.000;2022-07-29T15:22:27;101003.72;;;22.90;43.88
62976;BME280;49071;0.000;0.000;2022-07-29T15:25:28;101009.38;;;22.90;43.90
62976;BME280;49071;0.000;0.000;2022-07-29T15:28:28;101005.00;;;22.89;44.00
62976;BME280;49071;0.000;0.000;2022-07-29T15:31:28;101006.28;;;22.88;43.87
62976;BME280;49071;0.000;0.000;2022-07-29T15:34:28;101003.47;;;22.88;44.07
62976;BME280;49071;0.000;0.000;2022-07-29T15:37:28;101009.38;;;22.90;43.71
62976;BME280;49071;0.000;0.000;2022-07-29T15:40:29;101010.16;;;22.91;43.83
62976;BME280;49071;0.000;0.000;2022-07-29T15:43:29;101009.66;;;22.92;43.65
62976;BME280;49071;0.000;0.000;2022-07-29T15:46:30;101009.66;;;22.92;43.71
62976;BME280;49071;0.000;0.000;2022-07-29T15:49:49;101000.72;;;22.94;43.78
62976;BME280;49071;0.000;0.000;2022-07-29T15:52:49;100999.97;;;22.93;43.86
62976;BME280;49071;0.000;0.000;2022-07-29T15:55:49;101000.25;;;22.95;43.82
62976;BME280;49071;0.000;0.000;2022-07-29T15:58:50;101000.25;;;22.95;43.84
62976;BME280;49071;0.000;0.000;2022-07-29T16:01:50;101000.25;;;22.95;44.02
62976;BME280;49071;0.000;0.000;2022-07-29T16:04:50;100994.09;;;22.97;43.99
62976;BME280;49071;0.000;0.000;2022-07-29T16:07:51;100988.47;;;22.97;44.10
62976;BME280;49071;0.000;0.000;2022-07-29T16:10:51;100983.59;;;22.97;43.81
62976;BME280;49071;0.000;0.000;2022-07-29T16:13:51;100989.25;;;22.97;43.97
62976;BME280;49071;0.000;0.000;2022-07-29T16:16:51;100984.88;;;22.96;43.74
62976;BME280;49071;0.000;0.000;2022-07-29T16:19:52;100988.47;;;22.97;43.70
62976;BME280;49071;0.000;0.000;2022-07-29T16:22:53;100980.53;;;22.95;43.84
62976;BME280;49071;0.000;0.000;2022-07-29T16:25:53;100974.91;;;22.95;43.75
62976;BME280;49071;0.000;0.000;2022-07-29T16:28:53;100962.06;;;22.94;43.79
62976;BME280;49071;0.000;0.000;2022-07-29T16:31:54;100968.75;;;22.97;43.83
62976;BME280;49071;0.000;0.000;2022-07-29T16:34:54;100958.25;;;22.97;43.54
62976;BME280;49071;0.000;0.000;2022-07-29T16:37:54;100959.84;;;22.98;43.74
62976;BME280;49071;0.000;0.000;2022-07-29T16:40:54;100957.50;;;22.97;43.58
62976;BME280;49071;0.000;0.000;2022-07-29T16:43:55;100957.50;;;22.97;43.52
62976;BME280;49071;0.000;0.000;2022-07-29T16:46:55;100955.94;;;22.96;43.75
62976;BME280;49071;0.000;0.000;2022-07-29T16:49:55;100952.38;;;22.95;43.59
62976;BME280;49071;0.000;0.000;2022-07-29T16:52:56;100951.84;;;22.97;43.70
62976;BME280;49071;0.000;0.000;2022-07-29T16:55:56;100951.41;;;22.98;43.52
62976;BME280;49071;0.000;0.000;2022-07-29T16:58:56;100950.91;;;23.00;43.67
62976;BME280;49071;0.000;0.000;2022-07-29T17:01:57;100957.59;;;23.03;43.67
62976;BME280;49071;0.000;0.000;2022-07-29T17:04:57;100946.59;;;23.05;43.71
62976;BME280;49071;0.000;0.000;2022-07-29T17:07:58;100955.84;;;23.05;43.89
62976;BME280;49071;0.000;0.000;2022-07-29T17:10:58;100945.91;;;23.10;43.83
62976;BME280;49071;0.000;0.000;2022-07-29T17:13:58;100940.50;;;23.06;43.60
62976;BME280;49071;0.000;0.000;2022-07-29T17:16:59;100944.84;;;23.07;43.92
62976;BME280;49071;0.000;0.000;2022-07-29T17:19:59;100947.19;;;23.09;43.71
62976;BME280;49071;0.000;0.000;2022-07-29T17:23:00;100947.19;;;23.09;44.20
62976;BME280;49071;0.000;0.000;2022-07-29T17:26:00;100938.25;;;23.10;44.14
62976;BME280;49071;0.000;0.000;2022-07-29T17:29:00;100942.59;;;23.11;44.00
62976;BME280;49071;0.000;0.000;2022-07-29T17:32:01;100952.63;;;23.12;44.17
62976;BME280;49071;0.000;0.000;2022-07-29T17:35:01;100941.34;;;23.12;44.19
62976;BME280;49071;0.000;0.000;2022-07-29T17:38:02;100940.34;;;23.15;44.24
62976;BME280;49071;0.000;0.000;2022-07-29T17:41:02;100945.22;;;23.15;43.73
62976;BME280;49071;0.000;0.000;2022-07-29T17:44:02;100948.81;;;23.15;44.04
62976;BME280;49071;0.000;0.000;2022-07-29T17:47:06;100943.47;;;23.17;43.73
62976;BME280;49071;0.000;0.000;2022-07-29T17:50:07;100946.00;;;23.15;44.00
62976;BME280;49071;0.000;0.000;2022-07-29T17:53:07;100953.69;;;23.15;43.83
62976;BME280;49071;0.000;0.000;2022-07-29T17:56:07;100946.47;;;23.14;44.03
62976;BME280;49071;0.000;0.000;2022-07-29T17:59:07;100957.75;;;23.14;43.73
62976;BME280;49071;0.000;0.000;2022-07-29T18:02:09;100956.97;;;23.13;43.63
62976;BME280;49071;0.000;0.000;2022-07-29T18:05:11;100959.31;;;23.15;43.96
62976;BME280;49071;0.000;0.000;2022-07-29T18:08:11;100951.13;;;23.17;43.84
62976;BME280;49071;0.000;0.000;2022-07-29T18:11:12;100950.16;;;23.20;44.13
62976;BME280;49071;0.000;0.000;2022-07-29T18:14:13;100950.91;;;23.20;43.96
62976;BME280;49071;0.000;0.000;2022-07-29T18:17:13;100955.78;;;23.20;43.65
62976;BME280;49071;0.000;0.000;2022-07-29T18:20:14;100965.00;;;23.20;44.16
62976;BME280;49071;0.000;0.000;2022-07-29T18:23:14;100961.19;;;23.24;43.95
62976;BME280;49071;0.000;0.000;2022-07-29T18:26:15;100965.78;;;23.21;43.57
62976;BME280;49071;0.000;0.000;2022-07-29T18:29:16;100962.19;;;23.20;43.74
62976;BME280;49071;0.000;0.000;2022-07-29T18:32:16;100962.97;;;23.21;44.08
62976;BME280;49071;0.000;0.000;2022-07-29T18:35:16;100967.34;;;23.22;43.74
62976;BME280;49071;0.000;0.000;2022-07-29T18:38:17;100972.69;;;23.20;43.64
62976;BME280;49071;0.000;0.000;2022-07-29T18:41:17;100973.00;;;23.22;43.62
62976;BME280;49071;0.000;0.000;2022-07-29T18:44:17;100973.75;;;23.23;43.92
62976;BME280;49071;0.000;0.000;2022-07-29T18:47:20;100974.53;;;23.23;43.56
62976;BME280;49071;0.000;0.000;2022-07-29T18:50:20;100984.50;;;23.24;43.76
62976;BME280;49071;0.000;0.000;2022-07-29T18:53:22;100987.34;;;23.24;43.73
62976;BME280;49071;0.000;0.000;2022-07-29T18:56:22;100985.31;;;23.25;43.96
62976;BME280;49071;0.000;0.000;2022-07-29T18:59:22;100996.06;;;23.26;43.68
62976;BME280;49071;0.000;0.000;2022-07-29T19:02:22;101000.47;;;23.27;43.93
62976;BME280;49071;0.000;0.000;2022-07-29T19:05:23;100998.91;;;23.26;43.58
62976;BME280;49071;0.000;0.000;2022-07-29T19:08:23;100998.13;;;23.26;43.68
62976;BME280;49071;0.000;0.000;2022-07-29T19:11:23;100992.50;;;23.26;43.59
62976;BME280;49071;0.000;0.000;2022-07-29T19:14:24;100991.50;;;23.29;43.96
62976;BME280;49071;0.000;0.000;2022-07-29T19:17:24;100999.47;;;23.30;44.03
62976;BME280;49071;0.000;0.000;2022-07-29T19:20:24;101006.88;;;23.28;43.70
62976;BME280;49071;0.000;0.000;2022-07-29T19:23:24;101007.44;;;23.32;43.85
62976;BME280;49071;0.000;0.000;2022-07-29T19:26:25;101008.22;;;23.32;43.81
62976;BME280;49071;0.000;0.000;2022-07-29T19:29:25;101000.25;;;23.31;43.50
62976;BME280;49071;0.000;0.000;2022-07-29T19:32:25;101009.47;;;23.31;43.67
62976;BME280;49071;0.000;0.000;2022-07-29T19:35:26;101013.84;;;23.32;43.84
62976;BME280;49071;0.000;0.000;2022-07-29T19:38:32;101013.56;;;23.30;43.42
62976;BME280;49071;0.000;0.000;2022-07-29T19:41:32;101015.09;;;23.31;43.78
62976;BME280;49071;0.000;0.000;2022-07-29T19:44:32;101016.66;;;23.32;43.39
62976;BME280;49071;0.000;0.000;2022-07-29T19:47:32;101013.84;;;23.32;43.50
62976;BME280;49071;0.000;0.000;2022-07-29T19:50:33;101014.63;;;23.33;43.46
62976;BME280;49071;0.000;0.000;2022-07-29T19:53:33;101014.13;;;23.34;43.33
62976;BME280;49071;0.000;0.000;2022-07-29T19:56:33;101014.41;;;23.36;44.08
62976;BME280;49071;0.000;0.000;2022-07-29T19:59:34;101017.72;;;23.35;43.64
62976;BME280;49071;0.000;0.000;2022-07-29T20:02:34;101015.97;;;23.37;43.95
62976;BME280;49071;0.000;0.000;2022-07-29T20:05:34;101020.03;;;23.36;43.81
62976;BME280;49071;0.000;0.000;2022-07-29T20:08:36;101021.59;;;23.37;43.76
62976;BME280;49071;0.000;0.000;2022-07-29T20:11:37;101018.50;;;23.35;43.77
62976;BME280;49071;0.000;0.000;2022-07-29T20:14:38;101016.44;;;23.36;43.64
62976;BME280;49071;0.000;0.000;2022-07-29T20:17:39;101022.59;;;23.34;43.25
